Dennison, OH (44621)

10:08 PM EST on December 05, 2016 (GMT -0500)
OHDOT | | Change Station

Elev 879 ft 40.40 °N, 81.33 °W | Updated 33 minutes ago

Clear
Clear
28.0 °F
Feels Like 28.0 °F
N
0.0
Wind Variable Wind from East
Gusts 1.0 mph

Today
High -- | Low -- °F
--% Chance of Precip.
Yesterday
High -- | Low -- °F
Precip. -- in
Pressure 30.10 in
Visibility 8.0 miles
Clouds Clear
Dew Point 28.0 °F
Humidity 97%
Rainfall in
Snow Depth Not available.
7:33 AM 4:58 PM
Waxing Crescent, 37% visible
METAR KPHD 060253Z AUTO 00000KT 8SM CLR M02/M03 A3008 RMK AO2 SLP193 T10221033 58007
Pressure 30.10 in
Visibility 8.0 miles
Clouds Clear
Dew Point 28.0 °F
Humidity 97%
Rainfall in
Snow Depth Not available.
7:33 AM 4:58 PM
Waxing Crescent, 37% visible
METAR KPHD 060253Z AUTO 00000KT 8SM CLR M02/M03 A3008 RMK AO2 SLP193 T10221033 58007

10-Day Weather Forecast

Almanac

Astronomy

Dec. 05, 2016 Rise Set
Actual Time
Civil Twilight
Nautical Twilight
Astronomical Twilight
Moon
Length of Visible Light
Length of Day
Tomorrow will be .
, % of the Moon is Illuminated

Today's Extremes

State Highs State Lows

Community

WunderPhotos

Upload Photos

1,955,914 photos uploaded!

WunderBlog® & News

Nearby

Air Quality

  Air Quality AQ Index Pollutant
Not available.

Snow Depth

Station Depth Elevation

Earthquake Activity

City Distance Mag. Time & Date
Minimum magnitude displayed is 2.5.

Coastal Water Temperatures

Place Temperature

Stations

Nearby Weather Stations

Station Location Temp. Windchill Dew Point Humidity Wind Precip. Elev Updated Type
                   

Watches & Warnings

There are currently no watches in effect.